sensor_id;sensor_type;location;lat;lon;timestamp;P1;durP1;ratioP1;P2;durP2;ratioP2
21114;SDS011;10715;48.546;9.896;2024-02-21T00:02:11;8.50;;;3.00;;
21114;SDS011;10715;48.546;9.896;2024-02-21T00:04:37;4.50;;;2.00;;
21114;SDS011;10715;48.546;9.896;2024-02-21T00:07:03;10.83;;;3.73;;
21114;SDS011;10715;48.546;9.896;2024-02-21T00:09:33;5.53;;;4.20;;
21114;SDS011;10715;48.546;9.896;2024-02-21T00:11:59;23.53;;;5.90;;
21114;SDS011;10715;48.546;9.896;2024-02-21T00:14:44;14.77;;;8.10;;
21114;SDS011;10715;48.546;9.896;2024-02-21T00:17:10;10.73;;;6.80;;
21114;SDS011;10715;48.546;9.896;2024-02-21T00:19:42;24.90;;;8.30;;
21114;SDS011;10715;48.546;9.896;2024-02-21T00:22:07;16.40;;;8.83;;
21114;SDS011;10715;48.546;9.896;2024-02-21T00:24:33;26.80;;;12.53;;
21114;SDS011;10715;48.546;9.896;2024-02-21T00:27:02;18.70;;;10.60;;
21114;SDS011;10715;48.546;9.896;2024-02-21T00:29:34;17.07;;;7.03;;
21114;SDS011;10715;48.546;9.896;2024-02-21T00:32:00;14.80;;;6.83;;
21114;SDS011;10715;48.546;9.896;2024-02-21T00:34:25;13.63;;;7.50;;
21114;SDS011;10715;48.546;9.896;2024-02-21T00:36:51;7.07;;;4.77;;
21114;SDS011;10715;48.546;9.896;2024-02-21T00:39:17;5.53;;;3.90;;
21114;SDS011;10715;48.546;9.896;2024-02-21T00:41:42;6.90;;;1.97;;
21114;SDS011;10715;48.546;9.896;2024-02-21T00:44:08;6.57;;;4.07;;
21114;SDS011;10715;48.546;9.896;2024-02-21T00:46:50;18.77;;;7.57;;
21114;SDS011;10715;48.546;9.896;2024-02-21T00:49:17;10.93;;;5.33;;
21114;SDS011;10715;48.546;9.896;2024-02-21T00:51:46;9.17;;;7.10;;
21114;SDS011;10715;48.546;9.896;2024-02-21T00:54:18;12.83;;;7.80;;
21114;SDS011;10715;48.546;9.896;2024-02-21T00:56:50;22.60;;;8.77;;
21114;SDS011;10715;48.546;9.896;2024-02-21T00:59:19;18.50;;;10.07;;
21114;SDS011;10715;48.546;9.896;2024-02-21T01:01:54;21.30;;;11.50;;
21114;SDS011;10715;48.546;9.896;2024-02-21T01:04:23;14.60;;;9.40;;
21114;SDS011;10715;48.546;9.896;2024-02-21T01:06:52;8.70;;;4.17;;
21114;SDS011;10715;48.546;9.896;2024-02-21T01:09:18;7.70;;;3.30;;
21114;SDS011;10715;48.546;9.896;2024-02-21T01:11:44;3.53;;;2.23;;
21114;SDS011;10715;48.546;9.896;2024-02-21T01:14:12;6.60;;;2.60;;
21114;SDS011;10715;48.546;9.896;2024-02-21T01:16:41;4.23;;;2.00;;
21114;SDS011;10715;48.546;9.896;2024-02-21T01:19:07;6.20;;;2.43;;
21114;SDS011;10715;48.546;9.896;2024-02-21T01:21:33;4.67;;;4.03;;
21114;SDS011;10715;48.546;9.896;2024-02-21T01:23:59;3.90;;;2.60;;
21114;SDS011;10715;48.546;9.896;2024-02-21T01:26:24;6.33;;;3.93;;
21114;SDS011;10715;48.546;9.896;2024-02-21T01:28:50;9.20;;;5.33;;
21114;SDS011;10715;48.546;9.896;2024-02-21T01:31:25;4.77;;;4.27;;
21114;SDS011;10715;48.546;9.896;2024-02-21T01:34:03;4.37;;;3.93;;
21114;SDS011;10715;48.546;9.896;2024-02-21T01:36:29;3.40;;;2.33;;
21114;SDS011;10715;48.546;9.896;2024-02-21T01:38:55;11.53;;;3.83;;
21114;SDS011;10715;48.546;9.896;2024-02-21T01:41:24;9.13;;;2.90;;
21114;SDS011;10715;48.546;9.896;2024-02-21T01:43:52;3.77;;;3.00;;
21114;SDS011;10715;48.546;9.896;2024-02-21T01:46:18;2.10;;;1.90;;
21114;SDS011;10715;48.546;9.896;2024-02-21T01:48:44;9.00;;;2.37;;
21114;SDS011;10715;48.546;9.896;2024-02-21T01:51:11;3.73;;;1.67;;
21114;SDS011;10715;48.546;9.896;2024-02-21T01:53:38;2.57;;;1.77;;
21114;SDS011;10715;48.546;9.896;2024-02-21T01:56:08;3.40;;;1.90;;
21114;SDS011;10715;48.546;9.896;2024-02-21T01:58:36;1.90;;;1.47;;
21114;SDS011;10715;48.546;9.896;2024-02-21T02:01:03;5.20;;;2.10;;
21114;SDS011;10715;48.546;9.896;2024-02-21T02:03:29;7.67;;;2.73;;
21114;SDS011;10715;48.546;9.896;2024-02-21T02:05:57;2.10;;;1.53;;
21114;SDS011;10715;48.546;9.896;2024-02-21T02:08:22;2.70;;;2.50;;
21114;SDS011;10715;48.546;9.896;2024-02-21T02:10:48;3.90;;;2.30;;
21114;SDS011;10715;48.546;9.896;2024-02-21T02:13:14;2.80;;;2.37;;
21114;SDS011;10715;48.546;9.896;2024-02-21T02:15:41;5.90;;;1.90;;
21114;SDS011;10715;48.546;9.896;2024-02-21T02:18:07;2.10;;;1.67;;
21114;SDS011;10715;48.546;9.896;2024-02-21T02:20:33;2.53;;;1.63;;
21114;SDS011;10715;48.546;9.896;2024-02-21T02:23:00;3.40;;;2.20;;
21114;SDS011;10715;48.546;9.896;2024-02-21T02:25:32;2.73;;;2.50;;
21114;SDS011;10715;48.546;9.896;2024-02-21T02:27:57;2.67;;;1.50;;
21114;SDS011;10715;48.546;9.896;2024-02-21T02:30:23;2.47;;;2.23;;
21114;SDS011;10715;48.546;9.896;2024-02-21T02:32:49;8.37;;;2.17;;
21114;SDS011;10715;48.546;9.896;2024-02-21T02:35:15;5.33;;;1.70;;
21114;SDS011;10715;48.546;9.896;2024-02-21T02:37:47;3.73;;;2.47;;
21114;SDS011;10715;48.546;9.896;2024-02-21T02:40:14;2.00;;;1.90;;
21114;SDS011;10715;48.546;9.896;2024-02-21T02:42:40;16.83;;;5.00;;
21114;SDS011;10715;48.546;9.896;2024-02-21T02:45:06;1.93;;;1.47;;
21114;SDS011;10715;48.546;9.896;2024-02-21T02:47:32;3.00;;;1.67;;
21114;SDS011;10715;48.546;9.896;2024-02-21T02:49:59;5.30;;;2.50;;
21114;SDS011;10715;48.546;9.896;2024-02-21T02:52:25;3.57;;;2.40;;
21114;SDS011;10715;48.546;9.896;2024-02-21T02:54:51;17.20;;;2.53;;
21114;SDS011;10715;48.546;9.896;2024-02-21T02:57:18;7.43;;;3.67;;
21114;SDS011;10715;48.546;9.896;2024-02-21T02:59:47;8.23;;;3.50;;
21114;SDS011;10715;48.546;9.896;2024-02-21T03:02:13;10.20;;;3.60;;
21114;SDS011;10715;48.546;9.896;2024-02-21T03:04:39;8.83;;;4.77;;
21114;SDS011;10715;48.546;9.896;2024-02-21T03:07:05;12.20;;;7.23;;
21114;SDS011;10715;48.546;9.896;2024-02-21T03:09:31;14.50;;;7.20;;
21114;SDS011;10715;48.546;9.896;2024-02-21T03:11:57;9.60;;;5.00;;
21114;SDS011;10715;48.546;9.896;2024-02-21T03:14:28;11.90;;;5.20;;
21114;SDS011;10715;48.546;9.896;2024-02-21T03:16:54;10.00;;;7.03;;
21114;SDS011;10715;48.546;9.896;2024-02-21T03:19:20;11.30;;;6.03;;
21114;SDS011;10715;48.546;9.896;2024-02-21T03:21:45;13.87;;;6.00;;
21114;SDS011;10715;48.546;9.896;2024-02-21T03:24:11;5.20;;;3.53;;
21114;SDS011;10715;48.546;9.896;2024-02-21T03:26:37;3.60;;;3.00;;
21114;SDS011;10715;48.546;9.896;2024-02-21T03:29:03;10.57;;;3.23;;
21114;SDS011;10715;48.546;9.896;2024-02-21T03:31:29;5.83;;;3.07;;
21114;SDS011;10715;48.546;9.896;2024-02-21T03:33:54;6.87;;;4.63;;
21114;SDS011;10715;48.546;9.896;2024-02-21T03:36:20;5.37;;;3.20;;
21114;SDS011;10715;48.546;9.896;2024-02-21T03:38:46;6.00;;;3.23;;
21114;SDS011;10715;48.546;9.896;2024-02-21T03:41:12;7.90;;;3.87;;
21114;SDS011;10715;48.546;9.896;2024-02-21T03:43:38;7.50;;;3.90;;
21114;SDS011;10715;48.546;9.896;2024-02-21T03:46:04;5.00;;;2.50;;
21114;SDS011;10715;48.546;9.896;2024-02-21T03:48:30;3.60;;;2.23;;
21114;SDS011;10715;48.546;9.896;2024-02-21T03:50:56;7.13;;;2.93;;
21114;SDS011;10715;48.546;9.896;2024-02-21T03:53:22;2.10;;;1.97;;
21114;SDS011;10715;48.546;9.896;2024-02-21T03:55:47;3.50;;;2.17;;
21114;SDS011;10715;48.546;9.896;2024-02-21T03:58:13;3.50;;;2.30;;
21114;SDS011;10715;48.546;9.896;2024-02-21T04:00:39;2.40;;;1.93;;
21114;SDS011;10715;48.546;9.896;2024-02-21T04:03:04;4.70;;;1.67;;
21114;SDS011;10715;48.546;9.896;2024-02-21T04:05:31;2.63;;;2.40;;
21114;SDS011;10715;48.546;9.896;2024-02-21T04:07:58;6.50;;;2.87;;
21114;SDS011;10715;48.546;9.896;2024-02-21T04:10:24;7.60;;;2.77;;
21114;SDS011;10715;48.546;9.896;2024-02-21T04:12:49;5.03;;;2.63;;
21114;SDS011;10715;48.546;9.896;2024-02-21T04:15:18;5.57;;;2.70;;
21114;SDS011;10715;48.546;9.896;2024-02-21T04:17:44;3.80;;;2.10;;
21114;SDS011;10715;48.546;9.896;2024-02-21T04:20:13;3.60;;;1.97;;
21114;SDS011;10715;48.546;9.896;2024-02-21T04:22:40;2.90;;;2.20;;
21114;SDS011;10715;48.546;9.896;2024-02-21T04:25:12;2.80;;;2.60;;
21114;SDS011;10715;48.546;9.896;2024-02-21T04:27:38;7.33;;;2.63;;
21114;SDS011;10715;48.546;9.896;2024-02-21T04:30:04;2.60;;;1.77;;
21114;SDS011;10715;48.546;9.896;2024-02-21T04:32:31;5.40;;;2.53;;
21114;SDS011;10715;48.546;9.896;2024-02-21T04:34:57;2.50;;;2.30;;
21114;SDS011;10715;48.546;9.896;2024-02-21T04:37:23;4.13;;;2.03;;
21114;SDS011;10715;48.546;9.896;2024-02-21T04:39:49;3.53;;;2.10;;
21114;SDS011;10715;48.546;9.896;2024-02-21T04:42:16;3.70;;;1.60;;
21114;SDS011;10715;48.546;9.896;2024-02-21T04:44:42;3.10;;;1.87;;
21114;SDS011;10715;48.546;9.896;2024-02-21T04:47:08;2.90;;;1.80;;
21114;SDS011;10715;48.546;9.896;2024-02-21T04:49:34;2.97;;;1.87;;
21114;SDS011;10715;48.546;9.896;2024-02-21T04:52:00;4.93;;;2.07;;
21114;SDS011;10715;48.546;9.896;2024-02-21T04:54:26;4.00;;;1.80;;
21114;SDS011;10715;48.546;9.896;2024-02-21T04:56:51;3.73;;;2.13;;
21114;SDS011;10715;48.546;9.896;2024-02-21T04:59:17;1.83;;;1.00;;
21114;SDS011;10715;48.546;9.896;2024-02-21T05:01:43;4.63;;;1.40;;
21114;SDS011;10715;48.546;9.896;2024-02-21T05:04:09;7.63;;;1.90;;
21114;SDS011;10715;48.546;9.896;2024-02-21T05:06:41;4.20;;;2.03;;
21114;SDS011;10715;48.546;9.896;2024-02-21T05:09:07;1.47;;;0.97;;
21114;SDS011;10715;48.546;9.896;2024-02-21T05:11:34;1.87;;;1.67;;
21114;SDS011;10715;48.546;9.896;2024-02-21T05:14:03;1.60;;;1.43;;
21114;SDS011;10715;48.546;9.896;2024-02-21T05:16:29;2.50;;;1.17;;
21114;SDS011;10715;48.546;9.896;2024-02-21T05:18:56;1.70;;;1.13;;
21114;SDS011;10715;48.546;9.896;2024-02-21T05:21:25;1.70;;;1.60;;
21114;SDS011;10715;48.546;9.896;2024-02-21T05:23:53;4.43;;;1.63;;
21114;SDS011;10715;48.546;9.896;2024-02-21T05:26:25;1.80;;;1.27;;
21114;SDS011;10715;48.546;9.896;2024-02-21T05:28:52;3.10;;;1.50;;
21114;SDS011;10715;48.546;9.896;2024-02-21T05:31:18;2.40;;;1.33;;
21114;SDS011;10715;48.546;9.896;2024-02-21T05:33:44;2.57;;;1.03;;
21114;SDS011;10715;48.546;9.896;2024-02-21T05:36:10;2.20;;;1.00;;
21114;SDS011;10715;48.546;9.896;2024-02-21T05:38:37;4.63;;;1.03;;
21114;SDS011;10715;48.546;9.896;2024-02-21T05:41:03;3.63;;;1.90;;
21114;SDS011;10715;48.546;9.896;2024-02-21T05:43:29;5.23;;;1.70;;
21114;SDS011;10715;48.546;9.896;2024-02-21T05:45:55;11.87;;;5.23;;
21114;SDS011;10715;48.546;9.896;2024-02-21T05:48:21;2.43;;;2.00;;
21114;SDS011;10715;48.546;9.896;2024-02-21T05:50:47;2.47;;;2.10;;
21114;SDS011;10715;48.546;9.896;2024-02-21T05:53:13;5.27;;;2.90;;
21114;SDS011;10715;48.546;9.896;2024-02-21T05:55:39;11.00;;;6.00;;
21114;SDS011;10715;48.546;9.896;2024-02-21T05:58:05;5.37;;;3.60;;
21114;SDS011;10715;48.546;9.896;2024-02-21T06:00:31;5.87;;;3.93;;
21114;SDS011;10715;48.546;9.896;2024-02-21T06:02:58;5.60;;;4.27;;
21114;SDS011;10715;48.546;9.896;2024-02-21T06:05:24;7.03;;;3.40;;
21114;SDS011;10715;48.546;9.896;2024-02-21T06:07:50;2.67;;;2.37;;
21114;SDS011;10715;48.546;9.896;2024-02-21T06:10:15;7.77;;;2.67;;
21114;SDS011;10715;48.546;9.896;2024-02-21T06:12:41;4.27;;;2.33;;
21114;SDS011;10715;48.546;9.896;2024-02-21T06:15:07;3.93;;;3.63;;
21114;SDS011;10715;48.546;9.896;2024-02-21T06:17:33;5.80;;;1.87;;
21114;SDS011;10715;48.546;9.896;2024-02-21T06:19:59;2.97;;;1.70;;
21114;SDS011;10715;48.546;9.896;2024-02-21T06:22:24;5.33;;;1.70;;
21114;SDS011;10715;48.546;9.896;2024-02-21T06:24:50;5.10;;;2.37;;
21114;SDS011;10715;48.546;9.896;2024-02-21T06:27:17;2.10;;;1.60;;
21114;SDS011;10715;48.546;9.896;2024-02-21T06:29:43;3.27;;;2.43;;
21114;SDS011;10715;48.546;9.896;2024-02-21T06:32:09;14.40;;;3.23;;
21114;SDS011;10715;48.546;9.896;2024-02-21T06:34:35;6.30;;;2.33;;
21114;SDS011;10715;48.546;9.896;2024-02-21T06:37:00;4.00;;;1.43;;
21114;SDS011;10715;48.546;9.896;2024-02-21T06:39:26;2.33;;;1.47;;
21114;SDS011;10715;48.546;9.896;2024-02-21T06:41:53;1.27;;;1.00;;
21114;SDS011;10715;48.546;9.896;2024-02-21T06:44:21;2.17;;;1.77;;
21114;SDS011;10715;48.546;9.896;2024-02-21T06:46:47;2.07;;;1.20;;
21114;SDS011;10715;48.546;9.896;2024-02-21T06:49:13;1.70;;;1.13;;
21114;SDS011;10715;48.546;9.896;2024-02-21T06:51:44;3.70;;;1.30;;
21114;SDS011;10715;48.546;9.896;2024-02-21T06:54:10;3.10;;;1.47;;
21114;SDS011;10715;48.546;9.896;2024-02-21T06:56:36;4.13;;;1.23;;
21114;SDS011;10715;48.546;9.896;2024-02-21T06:59:02;5.90;;;1.93;;
21114;SDS011;10715;48.546;9.896;2024-02-21T07:01:29;6.10;;;3.40;;
21114;SDS011;10715;48.546;9.896;2024-02-21T07:03:55;3.73;;;1.20;;
21114;SDS011;10715;48.546;9.896;2024-02-21T07:06:21;3.10;;;1.50;;
21114;SDS011;10715;48.546;9.896;2024-02-21T07:08:47;8.13;;;1.50;;
21114;SDS011;10715;48.546;9.896;2024-02-21T07:11:13;2.67;;;1.73;;
21114;SDS011;10715;48.546;9.896;2024-02-21T07:13:38;4.00;;;2.10;;
21114;SDS011;10715;48.546;9.896;2024-02-21T07:16:04;3.20;;;1.50;;
21114;SDS011;10715;48.546;9.896;2024-02-21T07:18:31;17.90;;;2.00;;
21114;SDS011;10715;48.546;9.896;2024-02-21T07:20:56;3.07;;;1.70;;
21114;SDS011;10715;48.546;9.896;2024-02-21T07:23:23;6.53;;;2.47;;
21114;SDS011;10715;48.546;9.896;2024-02-21T07:25:49;7.17;;;3.20;;
21114;SDS011;10715;48.546;9.896;2024-02-21T07:28:14;5.43;;;4.90;;
21114;SDS011;10715;48.546;9.896;2024-02-21T07:30:41;4.53;;;3.83;;
21114;SDS011;10715;48.546;9.896;2024-02-21T07:33:07;6.40;;;3.73;;
21114;SDS011;10715;48.546;9.896;2024-02-21T07:35:33;5.60;;;3.70;;
21114;SDS011;10715;48.546;9.896;2024-02-21T07:37:59;10.80;;;5.20;;
21114;SDS011;10715;48.546;9.896;2024-02-21T07:40:24;12.53;;;4.40;;
21114;SDS011;10715;48.546;9.896;2024-02-21T07:42:50;13.30;;;4.53;;
21114;SDS011;10715;48.546;9.896;2024-02-21T07:45:16;13.10;;;7.43;;
21114;SDS011;10715;48.546;9.896;2024-02-21T07:47:43;13.90;;;4.40;;
21114;SDS011;10715;48.546;9.896;2024-02-21T07:50:09;8.97;;;6.07;;
21114;SDS011;10715;48.546;9.896;2024-02-21T07:52:35;8.47;;;3.80;;
21114;SDS011;10715;48.546;9.896;2024-02-21T07:55:00;16.10;;;5.20;;
21114;SDS011;10715;48.546;9.896;2024-02-21T07:57:26;5.53;;;3.43;;
21114;SDS011;10715;48.546;9.896;2024-02-21T07:59:52;4.17;;;3.10;;
21114;SDS011;10715;48.546;9.896;2024-02-21T08:02:17;10.80;;;3.27;;
21114;SDS011;10715;48.546;9.896;2024-02-21T08:04:43;3.53;;;2.20;;
21114;SDS011;10715;48.546;9.896;2024-02-21T08:07:09;2.83;;;2.37;;
21114;SDS011;10715;48.546;9.896;2024-02-21T08:09:35;8.00;;;2.27;;
21114;SDS011;10715;48.546;9.896;2024-02-21T08:12:03;6.90;;;1.93;;
21114;SDS011;10715;48.546;9.896;2024-02-21T08:14:29;5.53;;;2.87;;
21114;SDS011;10715;48.546;9.896;2024-02-21T08:16:55;11.30;;;5.20;;
21114;SDS011;10715;48.546;9.896;2024-02-21T08:19:21;3.80;;;3.60;;
21114;SDS011;10715;48.546;9.896;2024-02-21T08:21:47;3.83;;;2.20;;
21114;SDS011;10715;48.546;9.896;2024-02-21T08:24:13;3.50;;;1.40;;
21114;SDS011;10715;48.546;9.896;2024-02-21T08:26:43;7.33;;;1.30;;
21114;SDS011;10715;48.546;9.896;2024-02-21T08:29:10;6.43;;;1.23;;
21114;SDS011;10715;48.546;9.896;2024-02-21T08:31:36;1.17;;;0.90;;
21114;SDS011;10715;48.546;9.896;2024-02-21T08:34:02;3.23;;;1.03;;
21114;SDS011;10715;48.546;9.896;2024-02-21T08:36:35;2.43;;;1.43;;
21114;SDS011;10715;48.546;9.896;2024-02-21T08:39:02;11.77;;;0.90;;
21114;SDS011;10715;48.546;9.896;2024-02-21T08:41:30;3.53;;;1.27;;
21114;SDS011;10715;48.546;9.896;2024-02-21T08:43:56;1.50;;;1.17;;
21114;SDS011;10715;48.546;9.896;2024-02-21T08:46:22;2.10;;;1.03;;
21114;SDS011;10715;48.546;9.896;2024-02-21T08:48:49;2.27;;;0.80;;
21114;SDS011;10715;48.546;9.896;2024-02-21T08:51:16;1.50;;;1.00;;
21114;SDS011;10715;48.546;9.896;2024-02-21T08:53:43;6.10;;;1.23;;
21114;SDS011;10715;48.546;9.896;2024-02-21T08:56:10;1.33;;;0.80;;
21114;SDS011;10715;48.546;9.896;2024-02-21T08:58:36;1.37;;;0.83;;
21114;SDS011;10715;48.546;9.896;2024-02-21T09:01:02;2.40;;;0.80;;
21114;SDS011;10715;48.546;9.896;2024-02-21T09:03:30;2.80;;;0.70;;
21114;SDS011;10715;48.546;9.896;2024-02-21T09:05:57;1.10;;;0.77;;
21114;SDS011;10715;48.546;9.896;2024-02-21T09:08:23;7.27;;;1.90;;
21114;SDS011;10715;48.546;9.896;2024-02-21T09:10:49;1.17;;;0.60;;
21114;SDS011;10715;48.546;9.896;2024-02-21T09:13:15;1.33;;;0.70;;
21114;SDS011;10715;48.546;9.896;2024-02-21T09:15:42;0.90;;;0.60;;
21114;SDS011;10715;48.546;9.896;2024-02-21T09:18:08;1.83;;;0.63;;
21114;SDS011;10715;48.546;9.896;2024-02-21T09:20:34;0.83;;;0.50;;
21114;SDS011;10715;48.546;9.896;2024-02-21T09:23:00;1.27;;;0.60;;
21114;SDS011;10715;48.546;9.896;2024-02-21T09:25:25;3.03;;;0.70;;
21114;SDS011;10715;48.546;9.896;2024-02-21T09:27:53;1.00;;;0.60;;
21114;SDS011;10715;48.546;9.896;2024-02-21T09:30:20;1.83;;;0.60;;
21114;SDS011;10715;48.546;9.896;2024-02-21T09:32:46;3.20;;;0.73;;
21114;SDS011;10715;48.546;9.896;2024-02-21T09:35:12;1.00;;;0.67;;
21114;SDS011;10715;48.546;9.896;2024-02-21T09:37:38;0.70;;;0.50;;
21114;SDS011;10715;48.546;9.896;2024-02-21T09:40:05;2.07;;;1.87;;
21114;SDS011;10715;48.546;9.896;2024-02-21T09:42:38;2.07;;;0.70;;
21114;SDS011;10715;48.546;9.896;2024-02-21T09:45:07;1.50;;;0.70;;
21114;SDS011;10715;48.546;9.896;2024-02-21T09:50:26;1.47;;;0.70;;
21114;SDS011;10715;48.546;9.896;2024-02-21T09:52:54;1.80;;;1.20;;
21114;SDS011;10715;48.546;9.896;2024-02-21T09:55:21;0.63;;;0.47;;
21114;SDS011;10715;48.546;9.896;2024-02-21T09:57:47;3.77;;;0.57;;
21114;SDS011;10715;48.546;9.896;2024-02-21T10:00:16;1.00;;;0.70;;
21114;SDS011;10715;48.546;9.896;2024-02-21T10:02:47;1.60;;;0.73;;
21114;SDS011;10715;48.546;9.896;2024-02-21T10:05:14;1.70;;;0.60;;
21114;SDS011;10715;48.546;9.896;2024-02-21T10:07:40;2.87;;;0.70;;
21114;SDS011;10715;48.546;9.896;2024-02-21T10:10:06;1.33;;;0.57;;
21114;SDS011;10715;48.546;9.896;2024-02-21T10:12:32;1.67;;;0.77;;
21114;SDS011;10715;48.546;9.896;2024-02-21T10:15:05;1.13;;;0.70;;
21114;SDS011;10715;48.546;9.896;2024-02-21T10:17:32;3.20;;;0.80;;
21114;SDS011;10715;48.546;9.896;2024-02-21T10:20:10;1.00;;;0.80;;
21114;SDS011;10715;48.546;9.896;2024-02-21T10:22:39;1.33;;;0.60;;
21114;SDS011;10715;48.546;9.896;2024-02-21T10:25:08;4.10;;;1.33;;
21114;SDS011;10715;48.546;9.896;2024-02-21T10:27:34;5.83;;;1.60;;
21114;SDS011;10715;48.546;9.896;2024-02-21T10:30:01;2.93;;;0.80;;
21114;SDS011;10715;48.546;9.896;2024-02-21T10:32:28;1.70;;;0.90;;
21114;SDS011;10715;48.546;9.896;2024-02-21T10:35:04;1.27;;;0.73;;
21114;SDS011;10715;48.546;9.896;2024-02-21T10:37:30;2.43;;;1.03;;
21114;SDS011;10715;48.546;9.896;2024-02-21T10:39:57;5.83;;;1.50;;
21114;SDS011;10715;48.546;9.896;2024-02-21T10:42:23;4.80;;;2.90;;
21114;SDS011;10715;48.546;9.896;2024-02-21T10:44:54;1.73;;;1.20;;
21114;SDS011;10715;48.546;9.896;2024-02-21T10:47:26;1.23;;;0.80;;
21114;SDS011;10715;48.546;9.896;2024-02-21T10:49:57;2.30;;;1.13;;
21114;SDS011;10715;48.546;9.896;2024-02-21T10:55:21;2.43;;;1.53;;
21114;SDS011;10715;48.546;9.896;2024-02-21T10:57:53;1.53;;;0.97;;
21114;SDS011;10715;48.546;9.896;2024-02-21T11:00:19;2.00;;;0.80;;
21114;SDS011;10715;48.546;9.896;2024-02-21T11:02:46;5.60;;;2.40;;
21114;SDS011;10715;48.546;9.896;2024-02-21T11:05:13;1.30;;;0.50;;
21114;SDS011;10715;48.546;9.896;2024-02-21T11:07:40;1.40;;;0.60;;
21114;SDS011;10715;48.546;9.896;2024-02-21T11:10:19;1.07;;;0.70;;
21114;SDS011;10715;48.546;9.896;2024-02-21T11:12:49;3.47;;;0.87;;
21114;SDS011;10715;48.546;9.896;2024-02-21T11:15:17;2.07;;;0.60;;
21114;SDS011;10715;48.546;9.896;2024-02-21T11:17:53;1.80;;;0.50;;
21114;SDS011;10715;48.546;9.896;2024-02-21T11:20:32;1.13;;;0.83;;
21114;SDS011;10715;48.546;9.896;2024-02-21T11:22:59;2.47;;;0.80;;
21114;SDS011;10715;48.546;9.896;2024-02-21T11:25:26;1.60;;;0.60;;
21114;SDS011;10715;48.546;9.896;2024-02-21T11:27:58;2.70;;;0.50;;
21114;SDS011;10715;48.546;9.896;2024-02-21T11:30:31;1.00;;;0.50;;
21114;SDS011;10715;48.546;9.896;2024-02-21T11:33:01;1.20;;;0.40;;
21114;SDS011;10715;48.546;9.896;2024-02-21T11:35:34;0.90;;;0.40;;
21114;SDS011;10715;48.546;9.896;2024-02-21T11:38:07;1.40;;;0.43;;
21114;SDS011;10715;48.546;9.896;2024-02-21T11:40:39;1.17;;;0.60;;
21114;SDS011;10715;48.546;9.896;2024-02-21T11:43:06;1.07;;;0.93;;
21114;SDS011;10715;48.546;9.896;2024-02-21T11:45:32;1.13;;;0.60;;
21114;SDS011;10715;48.546;9.896;2024-02-21T11:47:59;0.80;;;0.37;;
21114;SDS011;10715;48.546;9.896;2024-02-21T11:50:28;0.90;;;0.40;;
21114;SDS011;10715;48.546;9.896;2024-02-21T11:52:55;0.90;;;0.40;;
21114;SDS011;10715;48.546;9.896;2024-02-21T11:55:24;3.87;;;0.50;;
21114;SDS011;10715;48.546;9.896;2024-02-21T11:57:50;1.70;;;0.40;;
21114;SDS011;10715;48.546;9.896;2024-02-21T12:00:16;1.20;;;0.50;;
21114;SDS011;10715;48.546;9.896;2024-02-21T12:02:47;1.17;;;0.70;;
21114;SDS011;10715;48.546;9.896;2024-02-21T12:05:15;1.23;;;0.60;;
21114;SDS011;10715;48.546;9.896;2024-02-21T12:07:41;1.00;;;0.63;;
21114;SDS011;10715;48.546;9.896;2024-02-21T12:10:08;3.30;;;0.60;;
21114;SDS011;10715;48.546;9.896;2024-02-21T12:12:35;1.37;;;0.50;;
21114;SDS011;10715;48.546;9.896;2024-02-21T12:15:05;0.70;;;0.40;;
21114;SDS011;10715;48.546;9.896;2024-02-21T12:17:33;0.80;;;0.70;;
21114;SDS011;10715;48.546;9.896;2024-02-21T12:20:02;1.10;;;0.40;;
21114;SDS011;10715;48.546;9.896;2024-02-21T12:22:30;0.70;;;0.40;;
21114;SDS011;10715;48.546;9.896;2024-02-21T12:24:59;0.60;;;0.30;;
21114;SDS011;10715;48.546;9.896;2024-02-21T12:27:27;0.83;;;0.40;;
21114;SDS011;10715;48.546;9.896;2024-02-21T12:29:53;0.83;;;0.40;;
21114;SDS011;10715;48.546;9.896;2024-02-21T12:32:19;1.10;;;0.47;;
21114;SDS011;10715;48.546;9.896;2024-02-21T12:34:45;1.00;;;0.30;;
21114;SDS011;10715;48.546;9.896;2024-02-21T12:37:11;1.03;;;0.30;;
21114;SDS011;10715;48.546;9.896;2024-02-21T12:39:40;2.13;;;1.47;;
21114;SDS011;10715;48.546;9.896;2024-02-21T12:42:06;1.07;;;0.50;;
21114;SDS011;10715;48.546;9.896;2024-02-21T12:44:33;1.17;;;0.40;;
21114;SDS011;10715;48.546;9.896;2024-02-21T12:46:59;0.80;;;0.40;;
21114;SDS011;10715;48.546;9.896;2024-02-21T12:49:25;0.73;;;0.40;;
21114;SDS011;10715;48.546;9.896;2024-02-21T12:51:54;2.33;;;0.60;;
21114;SDS011;10715;48.546;9.896;2024-02-21T12:54:20;1.73;;;0.50;;
21114;SDS011;10715;48.546;9.896;2024-02-21T12:56:46;4.43;;;0.50;;
21114;SDS011;10715;48.546;9.896;2024-02-21T12:59:12;1.77;;;0.40;;
21114;SDS011;10715;48.546;9.896;2024-02-21T13:01:39;6.40;;;0.70;;
21114;SDS011;10715;48.546;9.896;2024-02-21T13:04:05;1.00;;;0.60;;
21114;SDS011;10715;48.546;9.896;2024-02-21T13:06:30;0.80;;;0.40;;
21114;SDS011;10715;48.546;9.896;2024-02-21T13:08:56;2.90;;;0.60;;
21114;SDS011;10715;48.546;9.896;2024-02-21T13:11:22;0.80;;;0.43;;
21114;SDS011;10715;48.546;9.896;2024-02-21T13:13:51;7.80;;;0.40;;
21114;SDS011;10715;48.546;9.896;2024-02-21T13:16:18;0.70;;;0.50;;
21114;SDS011;10715;48.546;9.896;2024-02-21T13:18:43;1.23;;;0.30;;
21114;SDS011;10715;48.546;9.896;2024-02-21T13:21:12;1.00;;;0.50;;
21114;SDS011;10715;48.546;9.896;2024-02-21T13:23:38;1.27;;;0.33;;
21114;SDS011;10715;48.546;9.896;2024-02-21T13:26:04;1.10;;;0.47;;
21114;SDS011;10715;48.546;9.896;2024-02-21T13:28:30;1.43;;;0.60;;
21114;SDS011;10715;48.546;9.896;2024-02-21T13:30:56;1.33;;;0.80;;
21114;SDS011;10715;48.546;9.896;2024-02-21T13:33:22;0.87;;;0.50;;
21114;SDS011;10715;48.546;9.896;2024-02-21T13:35:48;0.90;;;0.40;;
21114;SDS011;10715;48.546;9.896;2024-02-21T13:38:14;0.93;;;0.40;;
21114;SDS011;10715;48.546;9.896;2024-02-21T13:40:40;4.10;;;0.70;;
21114;SDS011;10715;48.546;9.896;2024-02-21T13:43:07;0.80;;;0.40;;
21114;SDS011;10715;48.546;9.896;2024-02-21T13:45:33;1.43;;;0.60;;
21114;SDS011;10715;48.546;9.896;2024-02-21T13:47:58;0.90;;;0.60;;
21114;SDS011;10715;48.546;9.896;2024-02-21T13:50:27;6.53;;;0.77;;
21114;SDS011;10715;48.546;9.896;2024-02-21T13:52:55;4.30;;;1.03;;
21114;SDS011;10715;48.546;9.896;2024-02-21T13:55:21;1.00;;;0.40;;
21114;SDS011;10715;48.546;9.896;2024-02-21T13:57:51;2.07;;;1.30;;
21114;SDS011;10715;48.546;9.896;2024-02-21T14:00:17;3.03;;;0.50;;
21114;SDS011;10715;48.546;9.896;2024-02-21T14:02:43;3.23;;;0.70;;
21114;SDS011;10715;48.546;9.896;2024-02-21T14:05:09;1.60;;;1.07;;
21114;SDS011;10715;48.546;9.896;2024-02-21T14:07:35;1.27;;;0.50;;
21114;SDS011;10715;48.546;9.896;2024-02-21T14:10:01;1.10;;;0.43;;
21114;SDS011;10715;48.546;9.896;2024-02-21T14:12:28;0.77;;;0.40;;
21114;SDS011;10715;48.546;9.896;2024-02-21T14:14:54;1.10;;;0.40;;
21114;SDS011;10715;48.546;9.896;2024-02-21T14:17:23;0.90;;;0.50;;
21114;SDS011;10715;48.546;9.896;2024-02-21T14:19:49;0.80;;;0.40;;
21114;SDS011;10715;48.546;9.896;2024-02-21T14:22:16;1.30;;;0.50;;
21114;SDS011;10715;48.546;9.896;2024-02-21T14:24:42;0.90;;;0.70;;
21114;SDS011;10715;48.546;9.896;2024-02-21T14:27:08;0.80;;;0.50;;
21114;SDS011;10715;48.546;9.896;2024-02-21T14:29:34;1.53;;;0.50;;
21114;SDS011;10715;48.546;9.896;2024-02-21T14:32:00;0.90;;;0.40;;
21114;SDS011;10715;48.546;9.896;2024-02-21T14:34:25;0.90;;;0.70;;
21114;SDS011;10715;48.546;9.896;2024-02-21T14:36:51;1.13;;;0.60;;
21114;SDS011;10715;48.546;9.896;2024-02-21T14:39:17;1.97;;;0.40;;
21114;SDS011;10715;48.546;9.896;2024-02-21T14:41:43;1.00;;;0.47;;
21114;SDS011;10715;48.546;9.896;2024-02-21T14:44:08;1.60;;;0.60;;
21114;SDS011;10715;48.546;9.896;2024-02-21T14:46:36;1.33;;;0.70;;
21114;SDS011;10715;48.546;9.896;2024-02-21T14:49:03;1.70;;;0.60;;
21114;SDS011;10715;48.546;9.896;2024-02-21T14:51:29;6.70;;;3.53;;